createdAt,value
2022-07-25T00:01:44.269Z,27.90
2022-07-25T00:04:12.474Z,27.90
2022-07-25T00:06:39.581Z,27.90
2022-07-25T00:09:06.727Z,27.90
2022-07-25T00:11:33.787Z,27.90
2022-07-25T00:14:00.579Z,28.00
2022-07-25T00:16:27.301Z,28.00
2022-07-25T00:18:54.067Z,28.00
2022-07-25T00:21:21.004Z,28.10
2022-07-25T00:23:47.716Z,28.10
2022-07-25T00:26:14.552Z,28.00
2022-07-25T00:28:41.207Z,27.90
2022-07-25T00:31:07.863Z,27.80
2022-07-25T00:33:34.535Z,27.70
2022-07-25T00:36:01.163Z,27.70
2022-07-25T00:38:27.806Z,27.70
2022-07-25T00:40:55.691Z,27.60
2022-07-25T00:43:22.878Z,27.60
2022-07-25T00:45:49.607Z,27.50
2022-07-25T00:48:16.305Z,27.50
2022-07-25T00:50:43.301Z,27.50
2022-07-25T00:53:10.126Z,27.50
2022-07-25T00:55:37.419Z,27.50
2022-07-25T00:58:04.365Z,27.50
2022-07-25T01:00:31.142Z,27.40
2022-07-25T01:02:58.353Z,27.40
2022-07-25T01:05:25.473Z,27.40
2022-07-25T01:07:52.574Z,27.40
2022-07-25T01:10:19.225Z,27.40
2022-07-25T01:12:55.633Z,27.30
2022-07-25T01:15:23.927Z,27.20
2022-07-25T01:17:50.857Z,27.20
2022-07-25T01:20:19.684Z,27.10
2022-07-25T01:22:46.591Z,27.10
2022-07-25T01:25:14.440Z,26.90
2022-07-25T01:27:42.668Z,26.90
2022-07-25T01:30:11.852Z,26.90
2022-07-25T01:32:38.764Z,26.90
2022-07-25T01:35:07.424Z,27.00
2022-07-25T01:37:34.879Z,27.00
2022-07-25T01:40:02.251Z,27.00
2022-07-25T01:42:30.281Z,27.00
2022-07-25T01:44:57.990Z,27.10
2022-07-25T01:47:24.791Z,27.00
2022-07-25T01:49:51.448Z,27.00
2022-07-25T01:52:18.354Z,26.90
2022-07-25T01:54:45.122Z,26.90
2022-07-25T01:57:11.894Z,26.90
2022-07-25T01:59:41.033Z,26.80
2022-07-25T02:02:09.148Z,26.80
2022-07-25T02:04:36.678Z,26.80
2022-07-25T02:07:06.159Z,26.80
2022-07-25T02:09:32.928Z,26.80
2022-07-25T02:11:59.657Z,26.80
2022-07-25T02:14:26.351Z,26.80
2022-07-25T02:16:53.053Z,26.80
2022-07-25T02:19:19.786Z,26.80
2022-07-25T02:21:46.501Z,26.80
2022-07-25T02:24:13.238Z,26.90
2022-07-25T02:26:40.159Z,26.90
2022-07-25T02:29:06.903Z,26.90
2022-07-25T02:31:33.656Z,26.80
2022-07-25T02:34:00.381Z,26.70
2022-07-25T02:36:27.061Z,26.70
2022-07-25T02:38:53.648Z,26.70
2022-07-25T02:41:20.327Z,26.80
2022-07-25T02:43:47.212Z,26.80
2022-07-25T02:46:13.970Z,26.80
2022-07-25T02:48:40.745Z,26.80
2022-07-25T02:51:07.484Z,26.80
2022-07-25T02:53:55.952Z,26.80
2022-07-25T02:56:22.292Z,26.90
2022-07-25T02:58:50.451Z,26.90
2022-07-25T03:01:17.220Z,27.00
2022-07-25T03:03:44.039Z,27.00
2022-07-25T03:06:10.898Z,27.00
2022-07-25T03:08:37.664Z,27.00
2022-07-25T03:11:04.697Z,27.00
2022-07-25T03:13:33.399Z,27.00
2022-07-25T03:16:00.234Z,27.00
2022-07-25T03:18:26.836Z,27.00
2022-07-25T03:20:53.645Z,27.10
2022-07-25T03:23:20.398Z,27.10
2022-07-25T03:25:47.119Z,27.00
2022-07-25T03:28:13.943Z,27.10
2022-07-25T03:30:40.996Z,27.00
2022-07-25T03:33:07.653Z,27.00
2022-07-25T03:35:35.171Z,27.00
2022-07-25T03:38:02.142Z,27.00
2022-07-25T03:40:29.123Z,27.00
2022-07-25T03:42:55.939Z,27.00
2022-07-25T03:45:22.715Z,27.00
2022-07-25T03:47:49.389Z,27.10
2022-07-25T03:50:16.267Z,27.10
2022-07-25T03:52:42.895Z,27.10
2022-07-25T03:55:10.698Z,27.00
2022-07-25T03:57:38.202Z,27.00
2022-07-25T04:00:07.431Z,26.90
2022-07-25T04:02:34.802Z,26.90
2022-07-25T04:05:01.637Z,26.90
2022-07-25T04:07:28.243Z,26.90
2022-07-25T04:09:54.872Z,26.90
2022-07-25T04:12:21.486Z,26.90
2022-07-25T04:14:48.182Z,26.90
2022-07-25T04:17:15.011Z,27.00
2022-07-25T04:19:41.805Z,27.00
2022-07-25T04:22:08.476Z,27.10
2022-07-25T04:24:35.267Z,27.10
2022-07-25T04:27:01.966Z,27.20
2022-07-25T04:29:29.091Z,27.20
2022-07-25T04:31:55.978Z,27.20
2022-07-25T04:34:22.809Z,27.20
2022-07-25T04:36:49.524Z,27.20
2022-07-25T04:39:16.337Z,27.30
2022-07-25T04:41:43.134Z,27.40
2022-07-25T04:44:09.986Z,27.40
2022-07-25T04:46:36.792Z,27.50
2022-07-25T04:49:03.521Z,27.50
2022-07-25T04:51:30.222Z,27.60
2022-07-25T04:53:56.911Z,27.70
2022-07-25T04:56:23.514Z,27.80
2022-07-25T04:58:50.240Z,27.90
2022-07-25T05:01:17.035Z,27.90
2022-07-25T05:03:50.167Z,27.90
2022-07-25T05:06:18.739Z,28.00
2022-07-25T05:08:45.904Z,28.10
2022-07-25T05:11:12.525Z,28.10
2022-07-25T05:13:39.247Z,28.20
2022-07-25T05:16:06.385Z,28.30
2022-07-25T05:18:34.433Z,28.30
2022-07-25T05:21:01.076Z,28.30
2022-07-25T05:23:27.790Z,28.30
2022-07-25T05:25:54.431Z,28.40
2022-07-25T05:28:21.070Z,28.40
2022-07-25T05:30:48.021Z,28.30
2022-07-25T05:33:14.916Z,28.40
2022-07-25T05:35:41.603Z,28.40
2022-07-25T05:38:08.258Z,28.50
2022-07-25T05:40:35.123Z,28.60
2022-07-25T05:43:03.458Z,28.70
2022-07-25T05:45:31.303Z,28.80
2022-07-25T05:47:57.937Z,28.90
2022-07-25T05:50:24.673Z,29.00
2022-07-25T05:52:51.421Z,29.00
2022-07-25T05:55:18.210Z,29.00
2022-07-25T05:57:45.015Z,29.00
2022-07-25T06:00:12.104Z,29.00
2022-07-25T06:02:38.891Z,29.00
2022-07-25T06:05:05.853Z,29.00
2022-07-25T06:07:32.483Z,29.00
2022-07-25T06:09:59.181Z,28.90
2022-07-25T06:12:25.870Z,28.90
2022-07-25T06:14:52.760Z,28.80
2022-07-25T06:17:20.134Z,28.80
2022-07-25T06:19:46.805Z,28.80
2022-07-25T06:22:13.796Z,28.90
2022-07-25T06:24:41.458Z,28.90
2022-07-25T06:27:08.915Z,29.00
2022-07-25T06:29:35.822Z,29.10
2022-07-25T06:32:02.884Z,29.20
2022-07-25T06:34:29.970Z,29.30
2022-07-25T06:36:57.566Z,29.40
2022-07-25T06:39:25.603Z,29.40
2022-07-25T06:41:52.272Z,29.40
2022-07-25T06:44:19.250Z,29.40
2022-07-25T06:46:45.979Z,29.50
2022-07-25T06:49:12.875Z,29.50
2022-07-25T06:51:39.635Z,29.60
2022-07-25T06:54:06.649Z,29.60
2022-07-25T06:56:33.873Z,29.80
2022-07-25T06:59:00.548Z,29.90
2022-07-25T07:01:29.258Z,30.00
2022-07-25T07:03:56.138Z,30.10
2022-07-25T07:06:22.919Z,30.20
2022-07-25T07:08:51.742Z,30.20
2022-07-25T07:11:18.384Z,30.20
2022-07-25T07:13:45.112Z,30.10
2022-07-25T07:16:11.802Z,30.00
2022-07-25T07:18:38.773Z,30.00
2022-07-25T07:21:05.969Z,29.90
2022-07-25T07:23:32.897Z,29.90
2022-07-25T07:26:00.047Z,29.90
2022-07-25T07:28:26.846Z,29.90
2022-07-25T07:33:40.359Z,29.90
2022-07-25T07:36:07.259Z,29.90
2022-07-25T07:38:34.463Z,30.00
2022-07-25T07:41:01.253Z,30.00
2022-07-25T07:43:30.569Z,30.10
2022-07-25T07:46:01.334Z,30.10
2022-07-25T07:48:29.689Z,30.10
2022-07-25T07:50:56.932Z,30.10
2022-07-25T07:53:43.912Z,30.10
2022-07-25T07:56:11.061Z,30.20
2022-07-25T07:58:38.172Z,30.20
2022-07-25T08:01:05.216Z,30.20
2022-07-25T08:03:32.347Z,30.20
2022-07-25T08:05:59.027Z,30.40
2022-07-25T08:08:30.903Z,30.40
2022-07-25T08:10:59.318Z,30.40
2022-07-25T08:13:30.501Z,30.30
2022-07-25T08:15:58.904Z,30.30
2022-07-25T08:18:27.065Z,30.40
2022-07-25T08:20:54.522Z,30.50
2022-07-25T08:23:22.472Z,30.70
2022-07-25T08:25:49.718Z,30.80
2022-07-25T08:28:16.711Z,30.90
2022-07-25T08:30:43.905Z,30.90
2022-07-25T08:33:14.425Z,30.70
2022-07-25T08:35:46.009Z,30.50
2022-07-25T08:38:12.907Z,30.40
2022-07-25T08:40:39.933Z,30.20
2022-07-25T08:43:09.351Z,30.00
2022-07-25T08:45:37.087Z,29.90
2022-07-25T08:48:04.121Z,29.80
2022-07-25T08:50:30.836Z,29.70
2022-07-25T08:53:16.601Z,29.60
2022-07-25T08:55:45.754Z,29.90
2022-07-25T08:58:17.350Z,30.20
2022-07-25T09:00:44.877Z,30.30
2022-07-25T09:03:12.236Z,30.40
2022-07-25T09:05:39.651Z,30.50
2022-07-25T09:08:14.758Z,30.60
2022-07-25T09:10:47.586Z,30.60
2022-07-25T09:13:15.638Z,30.60
2022-07-25T09:15:50.221Z,30.70
2022-07-25T09:18:22.002Z,30.80
2022-07-25T09:20:49.748Z,30.80
2022-07-25T09:23:39.408Z,30.80
2022-07-25T09:26:11.039Z,30.80
2022-07-25T09:28:47.527Z,30.80
2022-07-25T09:31:15.946Z,30.80
2022-07-25T09:33:47.624Z,30.70
2022-07-25T09:36:14.941Z,30.70
2022-07-25T09:38:55.469Z,30.70
2022-07-25T09:41:22.455Z,30.80
2022-07-25T09:43:49.503Z,30.70
2022-07-25T09:46:16.730Z,30.60
2022-07-25T09:48:45.314Z,30.50
2022-07-25T09:51:12.216Z,30.50
2022-07-25T09:53:40.328Z,30.50
2022-07-25T09:56:08.622Z,30.70
2022-07-25T09:58:36.595Z,30.80
2022-07-25T10:01:07.414Z,30.90
2022-07-25T10:03:43.052Z,31.20
2022-07-25T10:06:09.600Z,31.40
2022-07-25T10:08:40.443Z,31.60
2022-07-25T10:11:19.248Z,31.70
2022-07-25T10:13:46.406Z,31.60
2022-07-25T10:16:19.483Z,31.50
2022-07-25T10:18:59.174Z,31.50
2022-07-25T10:21:28.302Z,31.40
2022-07-25T10:24:07.176Z,31.30
2022-07-25T10:26:39.777Z,31.30
2022-07-25T10:29:10.889Z,31.20
2022-07-25T10:31:47.705Z,31.30
2022-07-25T10:34:27.168Z,31.30
2022-07-25T10:36:57.409Z,31.30
2022-07-25T10:39:24.249Z,31.30
2022-07-25T10:42:02.987Z,31.30
2022-07-25T10:44:48.368Z,31.30
2022-07-25T10:47:16.866Z,31.30
2022-07-25T10:50:15.189Z,31.30
2022-07-25T10:52:42.076Z,31.20
2022-07-25T10:55:09.186Z,31.30
2022-07-25T10:57:41.594Z,31.50
2022-07-25T11:00:16.970Z,31.70
2022-07-25T11:02:44.624Z,31.70
2022-07-25T11:05:11.870Z,31.60
2022-07-25T11:07:38.676Z,31.50
2022-07-25T11:10:06.125Z,31.20
2022-07-25T11:12:33.492Z,31.10
2022-07-25T11:15:05.697Z,31.00
2022-07-25T11:17:32.842Z,30.80
2022-07-25T11:20:02.777Z,30.70
2022-07-25T11:22:30.689Z,30.70
2022-07-25T11:24:58.478Z,30.80
2022-07-25T11:27:26.132Z,30.90
2022-07-25T11:30:05.943Z,31.10
2022-07-25T11:32:43.616Z,31.10
2022-07-25T11:35:11.867Z,31.00
2022-07-25T11:37:41.353Z,31.00
2022-07-25T11:40:09.301Z,30.80
2022-07-25T11:42:41.019Z,30.80
2022-07-25T11:45:16.734Z,30.70
2022-07-25T11:47:43.540Z,30.60
2022-07-25T11:50:14.714Z,30.60
2022-07-25T11:52:43.252Z,30.50
2022-07-25T11:55:13.867Z,30.40
2022-07-25T11:57:45.961Z,30.30
2022-07-25T12:00:19.022Z,30.00
2022-07-25T12:02:47.356Z,29.90
2022-07-25T12:05:20.201Z,29.70
2022-07-25T12:07:55.361Z,29.60
2022-07-25T12:10:36.532Z,29.40
2022-07-25T12:13:08.524Z,29.30
2022-07-25T12:15:40.797Z,29.20
2022-07-25T12:18:10.401Z,29.00
2022-07-25T12:20:43.817Z,29.00
2022-07-25T12:23:12.114Z,29.00
2022-07-25T12:25:42.582Z,28.80
2022-07-25T12:28:11.016Z,28.80
2022-07-25T12:30:39.222Z,28.80
2022-07-25T12:33:06.475Z,28.80
2022-07-25T12:35:33.623Z,28.80
2022-07-25T12:38:00.576Z,28.90
2022-07-25T12:40:27.326Z,29.20
2022-07-25T12:42:54.360Z,29.40
2022-07-25T12:45:21.839Z,29.80
2022-07-25T12:47:48.598Z,30.10
2022-07-25T12:50:16.296Z,30.40
2022-07-25T12:52:44.544Z,30.60
2022-07-25T12:55:17.428Z,31.10
2022-07-25T12:57:44.267Z,31.60
2022-07-25T13:00:15.109Z,32.00
2022-07-25T13:02:42.162Z,32.10
2022-07-25T13:05:09.323Z,32.00
2022-07-25T13:07:36.174Z,32.00
2022-07-25T13:10:04.048Z,31.70
2022-07-25T13:12:31.075Z,31.50
2022-07-25T13:14:58.030Z,31.70
2022-07-25T13:17:27.691Z,32.00
2022-07-25T13:19:55.790Z,32.20
2022-07-25T13:22:22.749Z,32.50
2022-07-25T13:24:49.697Z,32.50
2022-07-25T13:27:18.841Z,32.50
2022-07-25T13:29:45.683Z,32.30
2022-07-25T13:32:12.750Z,32.20
2022-07-25T13:34:39.654Z,32.30
2022-07-25T13:37:06.316Z,32.40
2022-07-25T13:39:33.722Z,32.60
2022-07-25T13:42:00.589Z,33.10
2022-07-25T13:44:27.481Z,33.20
2022-07-25T13:46:54.347Z,33.10
2022-07-25T13:49:21.020Z,33.00
2022-07-25T13:51:48.066Z,32.80
2022-07-25T13:54:14.854Z,32.70
2022-07-25T13:56:42.561Z,32.70
2022-07-25T13:59:09.731Z,32.70
2022-07-25T14:01:36.974Z,32.90
2022-07-25T14:04:03.757Z,32.70
2022-07-25T14:06:30.604Z,32.40
2022-07-25T14:08:57.346Z,32.20
2022-07-25T14:11:30.232Z,32.20
2022-07-25T14:13:59.062Z,32.20
2022-07-25T14:16:25.782Z,32.10
2022-07-25T14:18:54.027Z,31.70
2022-07-25T14:21:20.817Z,31.70
2022-07-25T14:23:47.598Z,31.50
2022-07-25T14:26:14.757Z,31.50
2022-07-25T14:28:41.410Z,31.50
2022-07-25T14:31:08.122Z,31.70
2022-07-25T14:33:39.725Z,31.90
2022-07-25T14:36:08.515Z,32.10
2022-07-25T14:38:35.638Z,32.30
2022-07-25T14:41:04.342Z,32.40
2022-07-25T14:43:33.527Z,32.30
2022-07-25T14:46:00.272Z,32.40
2022-07-25T14:48:27.141Z,32.80
2022-07-25T14:50:54.721Z,33.10
2022-07-25T14:53:21.564Z,33.40
2022-07-25T14:55:48.233Z,33.70
2022-07-25T14:58:15.698Z,34.00
2022-07-25T15:00:43.516Z,34.20
2022-07-25T15:03:10.509Z,34.30
2022-07-25T15:05:38.400Z,34.40
2022-07-25T15:08:06.565Z,34.70
2022-07-25T15:10:33.255Z,34.90
2022-07-25T15:13:28.307Z,35.20
2022-07-25T15:15:47.156Z,35.30
2022-07-25T15:18:14.738Z,35.30
2022-07-25T15:20:41.767Z,35.00
2022-07-25T15:23:08.415Z,34.90
2022-07-25T15:26:00.660Z,34.80
2022-07-25T15:28:21.761Z,34.70
2022-07-25T15:30:48.631Z,34.90
2022-07-25T15:33:15.414Z,35.40
2022-07-25T15:35:43.879Z,35.10
2022-07-25T15:38:10.833Z,34.80
2022-07-25T15:40:37.770Z,34.70
2022-07-25T15:43:04.603Z,34.80
2022-07-25T15:45:33.422Z,34.80
2022-07-25T15:48:01.423Z,34.80
2022-07-25T15:50:28.039Z,35.00
2022-07-25T15:52:54.895Z,35.10
2022-07-25T15:55:21.582Z,35.10
2022-07-25T15:57:48.302Z,34.90
2022-07-25T16:00:15.196Z,34.60
2022-07-25T16:02:41.943Z,34.60
2022-07-25T16:05:09.178Z,35.00
2022-07-25T16:07:36.042Z,35.00
2022-07-25T16:10:02.788Z,34.70
2022-07-25T16:12:29.429Z,34.60
2022-07-25T16:14:56.436Z,34.80
2022-07-25T16:17:23.734Z,35.20
2022-07-25T16:19:50.395Z,35.40
2022-07-25T16:22:17.159Z,35.80
2022-07-25T16:24:44.346Z,35.70
2022-07-25T16:27:11.236Z,35.40
2022-07-25T16:29:38.702Z,35.50
2022-07-25T16:32:06.116Z,35.70
2022-07-25T16:34:33.804Z,36.00
2022-07-25T16:37:02.567Z,35.80
2022-07-25T16:39:29.705Z,35.60
2022-07-25T16:41:57.087Z,35.60
2022-07-25T16:44:23.793Z,35.80
2022-07-25T16:46:51.094Z,36.00
2022-07-25T16:49:18.201Z,35.60
2022-07-25T16:51:45.640Z,35.30
2022-07-25T16:54:12.568Z,35.10
2022-07-25T16:56:39.971Z,34.70
2022-07-25T16:59:08.051Z,34.70
2022-07-25T17:01:35.411Z,34.90
2022-07-25T17:04:02.517Z,34.90
2022-07-25T17:06:29.195Z,35.10
2022-07-25T17:08:56.035Z,34.70
2022-07-25T17:11:23.075Z,34.20
2022-07-25T17:13:49.789Z,33.70
2022-07-25T17:16:16.657Z,33.20
2022-07-25T17:18:43.376Z,32.70
2022-07-25T17:21:10.551Z,32.40
2022-07-25T17:23:37.208Z,32.10
2022-07-25T17:26:05.469Z,31.80
2022-07-25T17:28:32.368Z,31.80
2022-07-25T17:30:59.200Z,31.60
2022-07-25T17:33:26.379Z,31.30
2022-07-25T17:35:53.064Z,31.10
2022-07-25T17:38:25.328Z,30.90
2022-07-25T17:40:52.573Z,30.80
2022-07-25T17:43:20.058Z,30.60
2022-07-25T17:45:47.068Z,30.20
2022-07-25T17:48:18.376Z,29.90
2022-07-25T17:50:45.927Z,29.70
2022-07-25T17:53:15.816Z,29.60
2022-07-25T17:55:44.889Z,29.50
2022-07-25T17:58:16.883Z,29.50
2022-07-25T18:00:46.861Z,29.40
2022-07-25T18:03:21.379Z,29.20
2022-07-25T18:05:51.720Z,29.00
2022-07-25T18:08:18.438Z,28.90
2022-07-25T18:10:52.876Z,28.80
2022-07-25T18:13:22.645Z,28.70
2022-07-25T18:16:36.683Z,28.60
2022-07-25T18:19:04.825Z,28.50
2022-07-25T18:21:37.005Z,28.30
2022-07-25T18:24:09.300Z,28.20
2022-07-25T18:26:40.021Z,28.10
2022-07-25T18:29:15.679Z,28.00
2022-07-25T18:34:56.354Z,28.00
2022-07-25T18:37:43.153Z,27.90
2022-07-25T18:40:36.080Z,27.90
2022-07-25T18:43:06.118Z,27.80
2022-07-25T18:45:59.394Z,27.80
2022-07-25T18:48:32.003Z,27.70
2022-07-25T18:51:01.823Z,27.60
2022-07-25T18:53:32.556Z,27.60
2022-07-25T18:56:01.376Z,27.50
2022-07-25T18:58:42.157Z,27.60
2022-07-25T19:01:38.436Z,27.60
2022-07-25T19:04:10.314Z,27.60
2022-07-25T19:06:37.695Z,27.50
2022-07-25T19:09:08.841Z,27.40
2022-07-25T19:11:42.137Z,27.30
2022-07-25T19:14:10.946Z,27.40
2022-07-25T19:16:38.930Z,27.30
2022-07-25T19:19:06.074Z,27.40
2022-07-25T19:21:33.056Z,27.30
2022-07-25T19:23:59.884Z,27.30
2022-07-25T19:26:26.611Z,27.20
2022-07-25T19:28:53.335Z,27.20
2022-07-25T19:31:20.163Z,27.10
2022-07-25T19:33:47.090Z,27.20
2022-07-25T19:36:16.760Z,27.20
2022-07-25T19:38:43.445Z,27.10
2022-07-25T19:41:10.146Z,27.10
2022-07-25T19:43:37.108Z,27.10
2022-07-25T19:46:04.124Z,27.10
2022-07-25T19:48:30.970Z,27.10
2022-07-25T19:50:57.763Z,27.10
2022-07-25T19:53:28.654Z,27.00
2022-07-25T19:55:55.768Z,27.00
2022-07-25T19:58:22.456Z,27.00
2022-07-25T20:00:49.276Z,26.90
2022-07-25T20:03:17.428Z,27.00
2022-07-25T20:05:50.623Z,27.00
2022-07-25T20:08:18.743Z,26.90
2022-07-25T20:10:45.679Z,26.90
2022-07-25T20:13:12.528Z,26.90
2022-07-25T20:15:39.331Z,26.90
2022-07-25T20:18:06.007Z,26.90
2022-07-25T20:20:32.717Z,26.90
2022-07-25T20:22:59.376Z,26.90
2022-07-25T20:25:26.155Z,26.80
2022-07-25T20:27:52.915Z,26.80
2022-07-25T20:30:19.611Z,26.70
2022-07-25T20:32:46.359Z,26.70
2022-07-25T20:35:13.460Z,26.60
2022-07-25T20:37:40.254Z,26.60
2022-07-25T20:40:08.855Z,26.60
2022-07-25T20:42:36.604Z,26.60
2022-07-25T20:45:04.716Z,26.60
2022-07-25T20:47:31.614Z,26.40
2022-07-25T20:49:58.674Z,26.40
2022-07-25T20:52:27.393Z,26.30
2022-07-25T20:54:56.716Z,26.30
2022-07-25T20:57:23.641Z,26.30
2022-07-25T21:00:13.738Z,26.30
2022-07-25T21:02:47.346Z,26.30
2022-07-25T21:06:00.236Z,26.20
2022-07-25T21:08:27.201Z,26.20
2022-07-25T21:10:54.181Z,26.10
2022-07-25T21:13:21.126Z,26.00
2022-07-25T21:15:51.405Z,26.00
2022-07-25T21:18:21.504Z,26.00
2022-07-25T21:21:12.329Z,26.00
2022-07-25T21:24:16.118Z,26.00
2022-07-25T21:26:48.236Z,26.00
2022-07-25T21:29:43.496Z,25.90
2022-07-25T21:32:29.658Z,25.90
2022-07-25T21:35:15.185Z,25.90
2022-07-25T21:37:47.325Z,25.80
2022-07-25T21:40:34.242Z,25.80
2022-07-25T21:43:08.950Z,25.70
2022-07-25T21:51:40.946Z,25.60
2022-07-25T21:54:33.296Z,25.50
2022-07-25T22:00:38.831Z,25.50
2022-07-25T22:06:30.620Z,25.50
2022-07-25T22:09:13.572Z,25.40
2022-07-25T22:11:54.417Z,25.40
2022-07-25T22:18:09.765Z,25.30
2022-07-25T22:20:57.205Z,25.30
2022-07-25T22:23:49.812Z,25.20
2022-07-25T22:26:18.342Z,25.20
2022-07-25T22:31:33.247Z,25.20
2022-07-25T22:40:17.460Z,25.20
2022-07-25T22:43:16.083Z,25.20
2022-07-25T22:45:43.319Z,25.20
2022-07-25T22:48:11.788Z,25.20
2022-07-25T22:50:46.996Z,25.20
2022-07-25T22:53:38.170Z,25.20
2022-07-25T22:56:06.967Z,25.20
2022-07-25T22:59:14.363Z,25.20
2022-07-25T23:01:45.910Z,25.20
2022-07-25T23:04:43.188Z,25.20
2022-07-25T23:25:02.747Z,25.30
2022-07-25T23:27:37.514Z,25.40
2022-07-25T23:30:45.184Z,25.40
2022-07-25T23:33:25.219Z,25.40
2022-07-25T23:36:02.367Z,25.40
2022-07-25T23:38:55.952Z,25.30
2022-07-25T23:47:21.290Z,25.40
2022-07-25T23:55:51.721Z,25.40
